createdAt,value
2019-05-16T00:02:25.619Z,39.58
2019-05-16T00:04:59.310Z,38.25
2019-05-16T00:07:30.930Z,36.03
2019-05-16T00:10:05.276Z,37.40
2019-05-16T00:12:39.974Z,34.23
2019-05-16T00:15:11.413Z,39.90
2019-05-16T00:17:43.369Z,50.08
2019-05-16T00:20:15.861Z,41.25
2019-05-16T00:22:50.337Z,47.90
2019-05-16T00:25:22.738Z,35.27
2019-05-16T00:27:54.099Z,37.08
2019-05-16T00:30:28.824Z,35.43
2019-05-16T00:33:00.686Z,35.63
2019-05-16T00:35:33.071Z,37.45
2019-05-16T00:38:08.687Z,35.65
2019-05-16T00:40:41.023Z,34.48
2019-05-16T00:43:13.541Z,35.80
2019-05-16T00:45:48.447Z,34.78
2019-05-16T00:48:19.717Z,40.60
2019-05-16T00:50:51.118Z,35.75
2019-05-16T00:53:23.898Z,35.75
2019-05-16T00:55:59.667Z,35.98
2019-05-16T00:58:34.494Z,32.90
2019-05-16T01:01:08.345Z,38.75
2019-05-16T01:03:40.388Z,33.67
2019-05-16T01:06:23.226Z,37.33
2019-05-16T01:08:57.956Z,36.10
2019-05-16T01:11:29.066Z,36.03
2019-05-16T01:14:00.897Z,32.60
2019-05-16T01:16:33.459Z,39.00
2019-05-16T01:19:08.288Z,37.80
2019-05-16T01:21:40.307Z,32.67
2019-05-16T01:24:12.886Z,32.80
2019-05-16T01:26:50.838Z,40.28
2019-05-16T01:29:25.180Z,30.43
2019-05-16T01:32:02.170Z,30.62
2019-05-16T01:34:37.672Z,35.98
2019-05-16T01:37:11.879Z,34.67
2019-05-16T01:42:21.251Z,36.05
2019-05-16T01:44:52.782Z,32.78
2019-05-16T01:47:28.649Z,38.65
2019-05-16T01:50:00.375Z,34.88
2019-05-16T01:52:34.870Z,33.33
2019-05-16T01:55:08.522Z,30.63
2019-05-16T01:57:40.297Z,28.35
2019-05-16T02:00:23.385Z,27.75
2019-05-16T02:02:54.631Z,27.67
2019-05-16T02:05:30.062Z,31.45
2019-05-16T02:08:03.347Z,28.40
2019-05-16T02:10:38.070Z,29.18
2019-05-16T02:13:10.811Z,28.83
2019-05-16T02:18:38.218Z,30.30
2019-05-16T02:21:10.694Z,28.17
2019-05-16T02:23:43.637Z,32.08
2019-05-16T02:26:15.166Z,31.73
2019-05-16T02:28:50.809Z,29.00
2019-05-16T02:31:22.815Z,27.20
2019-05-16T02:33:56.867Z,28.25
2019-05-16T02:36:31.392Z,26.02
2019-05-16T02:39:10.902Z,27.40
2019-05-16T02:41:46.844Z,26.17
2019-05-16T02:44:20.788Z,28.92
2019-05-16T02:47:01.218Z,25.68
2019-05-16T02:49:34.160Z,24.57
2019-05-16T02:52:05.535Z,24.90
2019-05-16T02:54:40.938Z,23.52
2019-05-16T02:57:12.595Z,24.85
2019-05-16T02:59:50.652Z,23.15
2019-05-16T03:02:21.005Z,26.82
2019-05-16T03:04:56.869Z,22.90
2019-05-16T03:07:41.292Z,23.40
2019-05-16T03:10:06.694Z,22.52
2019-05-16T03:12:41.136Z,22.45
2019-05-16T03:15:14.433Z,26.90
2019-05-16T03:24:02.587Z,21.93
2019-05-16T03:26:35.359Z,20.82
2019-05-16T03:29:11.077Z,23.90
2019-05-16T03:31:45.828Z,22.50
2019-05-16T03:34:25.677Z,20.35
2019-05-16T03:36:54.676Z,22.20
2019-05-16T03:39:41.154Z,21.15
2019-05-16T03:42:20.506Z,19.92
2019-05-16T03:44:56.638Z,21.33
2019-05-16T03:47:31.272Z,21.12
2019-05-16T03:50:14.511Z,21.05
2019-05-16T03:52:46.254Z,20.57
2019-05-16T03:55:21.433Z,25.25
2019-05-16T04:00:45.846Z,21.50
2019-05-16T04:03:21.215Z,19.92
2019-05-16T04:05:54.126Z,19.07
2019-05-16T04:08:31.096Z,20.77
2019-05-16T04:11:02.072Z,19.73
2019-05-16T04:13:36.046Z,19.70
2019-05-16T04:16:11.828Z,23.47
2019-05-16T04:18:45.020Z,21.52
2019-05-16T04:21:21.452Z,23.57
2019-05-16T04:23:51.490Z,22.82
2019-05-16T04:26:24.318Z,19.67
2019-05-16T04:29:00.527Z,22.82
2019-05-16T04:31:31.723Z,18.65
2019-05-16T04:34:04.833Z,17.62
2019-05-16T04:36:40.424Z,19.00
2019-05-16T04:39:12.160Z,24.95
2019-05-16T04:41:45.142Z,19.35
2019-05-16T04:44:21.050Z,20.30
2019-05-16T04:46:53.502Z,20.60
2019-05-16T04:49:26.904Z,18.98
2019-05-16T04:52:00.637Z,17.52
2019-05-16T04:54:33.198Z,18.77
2019-05-16T04:57:11.554Z,20.62
2019-05-16T04:59:43.415Z,18.98
2019-05-16T05:02:17.467Z,18.57
2019-05-16T05:04:50.907Z,18.65
2019-05-16T05:07:23.082Z,17.37
2019-05-16T05:09:56.937Z,20.37
2019-05-16T05:12:31.722Z,21.23
2019-05-16T05:15:03.957Z,23.67
2019-05-16T05:17:40.927Z,22.07
2019-05-16T05:20:14.402Z,19.12
2019-05-16T05:22:45.695Z,19.40
2019-05-16T05:25:20.253Z,20.40
2019-05-16T05:27:52.581Z,21.00
2019-05-16T05:30:24.385Z,20.52
2019-05-16T05:32:57.623Z,23.10
2019-05-16T05:35:31.095Z,22.37
2019-05-16T05:38:05.446Z,19.80
2019-05-16T05:40:37.139Z,21.90
2019-05-16T05:43:10.602Z,22.77
2019-05-16T05:45:43.201Z,25.60
2019-05-16T05:48:17.595Z,19.60
2019-05-16T05:50:51.100Z,21.17
2019-05-16T05:53:23.891Z,21.97
2019-05-16T05:56:00.373Z,17.92
2019-05-16T05:58:32.953Z,23.00
2019-05-16T06:01:04.590Z,21.52
2019-05-16T06:03:39.735Z,31.65
2019-05-16T06:06:13.288Z,20.50
2019-05-16T06:08:49.999Z,19.73
2019-05-16T06:11:21.376Z,20.88
2019-05-16T06:13:54.037Z,15.93
2019-05-16T06:16:30.848Z,22.42
2019-05-16T06:19:03.229Z,17.40
2019-05-16T06:21:37.410Z,15.25
2019-05-16T06:24:10.799Z,12.20
2019-05-16T06:26:43.464Z,14.85
2019-05-16T06:29:16.084Z,13.35
2019-05-16T06:31:49.635Z,14.93
2019-05-16T06:34:22.615Z,15.28
2019-05-16T06:36:56.713Z,16.50
2019-05-16T06:39:41.274Z,20.30
2019-05-16T06:42:02.224Z,16.80
2019-05-16T06:44:36.600Z,15.65
2019-05-16T06:47:19.071Z,18.70
2019-05-16T06:49:51.006Z,14.73
2019-05-16T06:52:23.562Z,17.23
2019-05-16T06:54:56.906Z,15.70
2019-05-16T06:57:30.216Z,17.87
2019-05-16T07:00:04.824Z,18.60
2019-05-16T07:02:37.562Z,20.70
2019-05-16T07:05:10.134Z,17.65
2019-05-16T07:07:42.057Z,15.13
2019-05-16T07:10:14.630Z,17.20
2019-05-16T07:12:46.960Z,16.62
2019-05-16T07:15:20.693Z,18.32
2019-05-16T07:17:54.318Z,20.08
2019-05-16T07:20:27.171Z,18.00
2019-05-16T07:23:00.767Z,19.70
2019-05-16T07:25:33.079Z,21.05
2019-05-16T07:28:10.074Z,21.20
2019-05-16T07:30:40.828Z,18.65
2019-05-16T07:33:13.602Z,17.40
2019-05-16T07:35:46.202Z,17.50
2019-05-16T07:38:20.356Z,16.15
2019-05-16T07:40:52.634Z,19.42
2019-05-16T07:43:25.678Z,17.87
2019-05-16T07:46:00.221Z,19.55
2019-05-16T07:48:32.132Z,19.67
2019-05-16T07:51:06.013Z,17.12
2019-05-16T07:53:40.371Z,17.32
2019-05-16T07:56:13.089Z,18.55
2019-05-16T07:58:44.518Z,17.95
2019-05-16T08:01:20.082Z,17.37
2019-05-16T08:03:52.598Z,16.77
2019-05-16T08:06:27.238Z,17.32
2019-05-16T08:09:00.238Z,20.23
2019-05-16T08:11:34.875Z,19.57
2019-05-16T08:14:07.325Z,16.12
2019-05-16T08:16:40.812Z,16.40
2019-05-16T08:19:12.566Z,18.30
2019-05-16T08:21:50.373Z,19.55
2019-05-16T08:24:21.390Z,16.57
2019-05-16T08:26:54.255Z,17.02
2019-05-16T08:29:26.935Z,17.45
2019-05-16T08:32:02.231Z,20.17
2019-05-16T08:34:34.472Z,17.05
2019-05-16T08:37:30.608Z,17.05
2019-05-16T08:39:43.722Z,17.15
2019-05-16T08:42:20.596Z,17.70
2019-05-16T08:44:52.672Z,18.77
2019-05-16T08:47:27.045Z,18.40
2019-05-16T08:50:00.649Z,18.42
2019-05-16T08:52:32.385Z,20.02
2019-05-16T08:55:05.269Z,17.05
2019-05-16T08:57:40.793Z,20.12
2019-05-16T09:00:14.758Z,19.33
2019-05-16T09:02:46.622Z,21.42
2019-05-16T09:05:22.294Z,18.67
2019-05-16T09:08:00.650Z,19.20
2019-05-16T09:13:02.645Z,17.52
2019-05-16T09:15:38.874Z,17.37
2019-05-16T09:18:09.237Z,14.85
2019-05-16T09:20:43.768Z,19.48
2019-05-16T09:23:17.900Z,17.90
2019-05-16T09:25:50.601Z,19.55
2019-05-16T09:28:23.093Z,19.20
2019-05-16T09:30:57.717Z,16.75
2019-05-16T09:33:30.072Z,20.37
2019-05-16T09:36:02.869Z,17.77
2019-05-16T09:38:38.275Z,18.07
2019-05-16T09:41:10.994Z,19.48
2019-05-16T09:43:48.406Z,23.98
2019-05-16T09:46:18.083Z,16.02
2019-05-16T09:49:09.780Z,20.75
2019-05-16T09:51:27.217Z,19.15
2019-05-16T09:54:00.394Z,18.07
2019-05-16T09:56:34.178Z,17.65
2019-05-16T09:59:06.960Z,37.93
2019-05-16T10:01:38.670Z,28.15
2019-05-16T10:04:13.302Z,21.02
2019-05-16T10:06:48.191Z,17.25
2019-05-16T10:09:37.803Z,18.75
2019-05-16T10:12:08.332Z,17.42
2019-05-16T10:14:29.829Z,17.42
2019-05-16T10:17:02.456Z,12.07
2019-05-16T10:19:36.821Z,13.10
2019-05-16T10:22:09.302Z,10.57
2019-05-16T10:24:42.182Z,10.80
2019-05-16T10:27:16.973Z,12.20
2019-05-16T10:29:49.299Z,11.73
2019-05-16T10:32:23.654Z,10.30
2019-05-16T10:34:57.257Z,9.93
2019-05-16T10:37:29.314Z,14.47
2019-05-16T10:40:03.976Z,14.35
2019-05-16T10:42:38.705Z,12.33
2019-05-16T10:45:10.273Z,16.55
2019-05-16T10:47:42.872Z,10.90
2019-05-16T10:50:16.906Z,18.67
2019-05-16T10:53:13.292Z,11.65
2019-05-16T10:55:23.170Z,10.72
2019-05-16T10:57:56.762Z,10.32
2019-05-16T11:00:57.715Z,8.58
2019-05-16T11:03:06.655Z,12.13
2019-05-16T11:05:39.606Z,9.75
2019-05-16T11:08:12.398Z,8.38
2019-05-16T11:10:47.656Z,9.93
2019-05-16T11:13:20.987Z,7.50
2019-05-16T11:15:53.629Z,10.48
2019-05-16T11:18:27.213Z,10.13
2019-05-16T11:20:59.335Z,8.28
2019-05-16T11:23:32.204Z,12.60
2019-05-16T11:26:04.878Z,9.98
2019-05-16T11:28:40.750Z,9.25
2019-05-16T11:31:13.525Z,10.25
2019-05-16T11:33:47.741Z,7.12
2019-05-16T11:36:22.387Z,7.85
2019-05-16T11:38:58.573Z,10.78
2019-05-16T11:41:28.024Z,8.73
2019-05-16T11:44:00.364Z,8.78
2019-05-16T11:46:33.365Z,7.30
2019-05-16T11:49:05.966Z,8.30
2019-05-16T11:51:38.658Z,6.72
2019-05-16T11:54:11.048Z,6.83
2019-05-16T11:56:43.411Z,5.17
2019-05-16T11:59:16.123Z,4.80
2019-05-16T12:01:49.056Z,4.28
2019-05-16T12:04:23.453Z,3.90
2019-05-16T12:06:57.785Z,3.93
2019-05-16T12:09:33.619Z,5.07
2019-05-16T12:12:04.685Z,6.40
2019-05-16T12:14:39.444Z,4.87
2019-05-16T12:17:11.019Z,5.95
2019-05-16T12:22:37.706Z,5.62
2019-05-16T12:27:47.871Z,4.70
2019-05-16T12:30:23.088Z,5.92
2019-05-16T12:32:58.466Z,5.12
2019-05-16T12:35:32.318Z,6.47
2019-05-16T12:38:07.803Z,4.65
2019-05-16T12:40:42.171Z,5.55
2019-05-16T12:43:14.494Z,5.45
2019-05-16T12:45:47.928Z,6.75
2019-05-16T12:48:22.062Z,6.05
2019-05-16T12:50:54.368Z,6.30
2019-05-16T12:53:31.760Z,5.85
2019-05-16T12:55:59.917Z,6.62
2019-05-16T12:58:42.156Z,4.97
2019-05-16T13:01:07.961Z,5.37
2019-05-16T13:03:42.636Z,8.93
2019-05-16T13:06:17.469Z,5.45
2019-05-16T13:08:52.849Z,5.72
2019-05-16T13:11:23.620Z,5.95
2019-05-16T13:14:05.772Z,6.22
2019-05-16T13:16:33.796Z,7.65
2019-05-16T13:19:06.975Z,8.98
2019-05-16T13:21:39.714Z,11.97
2019-05-16T13:24:12.181Z,10.93
2019-05-16T13:26:47.680Z,9.70
2019-05-16T13:29:20.342Z,8.45
2019-05-16T13:31:53.018Z,7.87
2019-05-16T13:34:27.885Z,8.35
2019-05-16T13:36:58.311Z,8.83
2019-05-16T13:39:30.790Z,11.03
2019-05-16T13:42:04.424Z,10.50
2019-05-16T13:44:43.494Z,10.17
2019-05-16T13:47:17.444Z,10.72
2019-05-16T13:49:52.074Z,12.80
2019-05-16T13:52:27.989Z,14.40
2019-05-16T13:54:58.590Z,14.13
2019-05-16T13:57:32.960Z,14.83
2019-05-16T14:00:07.533Z,14.33
2019-05-16T14:02:41.556Z,17.60
2019-05-16T14:05:17.889Z,16.05
2019-05-16T14:07:49.877Z,19.70
2019-05-16T14:10:29.330Z,20.23
2019-05-16T14:12:58.179Z,19.17
2019-05-16T14:15:32.262Z,19.87
2019-05-16T14:18:08.051Z,18.30
2019-05-16T14:20:39.699Z,20.95
2019-05-16T14:23:11.120Z,22.40
2019-05-16T14:25:47.957Z,21.80
2019-05-16T14:28:22.459Z,22.17
2019-05-16T14:30:57.057Z,24.90
2019-05-16T14:33:30.958Z,26.85
2019-05-16T14:36:03.695Z,25.12
2019-05-16T14:38:37.395Z,25.97
2019-05-16T14:41:11.888Z,27.10
2019-05-16T14:43:47.937Z,25.63
2019-05-16T14:46:21.069Z,24.25
2019-05-16T14:48:52.641Z,27.25
2019-05-16T14:51:31.055Z,27.27
2019-05-16T14:54:00.673Z,25.02
2019-05-16T14:56:33.277Z,28.00
2019-05-16T14:59:08.125Z,24.05
2019-05-16T15:01:40.683Z,24.95
2019-05-16T15:04:13.175Z,26.60
2019-05-16T15:06:47.394Z,28.25
2019-05-16T15:09:20.301Z,28.15
2019-05-16T15:11:54.202Z,26.10
2019-05-16T15:14:28.046Z,29.30
2019-05-16T15:17:07.054Z,26.90
2019-05-16T15:19:43.711Z,27.58
2019-05-16T15:22:16.808Z,28.92
2019-05-16T15:24:51.179Z,32.88
2019-05-16T15:27:26.251Z,26.02
2019-05-16T15:30:02.011Z,23.85
2019-05-16T15:32:38.739Z,25.30
2019-05-16T15:35:10.759Z,26.95
2019-05-16T15:37:47.985Z,26.50
2019-05-16T15:40:18.358Z,25.85
2019-05-16T15:42:52.983Z,29.25
2019-05-16T15:45:37.936Z,28.05
2019-05-16T15:48:01.755Z,29.18
2019-05-16T15:50:37.103Z,28.90
2019-05-16T15:53:07.911Z,28.02
2019-05-16T15:55:41.802Z,32.45
2019-05-16T15:58:13.482Z,29.63
2019-05-16T16:00:57.837Z,28.40
2019-05-16T16:03:34.513Z,28.57
2019-05-16T16:06:08.432Z,28.77
2019-05-16T16:08:41.215Z,31.27
2019-05-16T16:11:16.983Z,33.90
2019-05-16T16:13:48.570Z,30.57
2019-05-16T16:16:23.605Z,35.48
2019-05-16T16:18:57.268Z,38.10
2019-05-16T16:21:29.156Z,35.73
2019-05-16T16:24:00.635Z,34.63
2019-05-16T16:26:33.306Z,37.63
2019-05-16T16:29:07.313Z,37.90
2019-05-16T16:31:40.060Z,41.15
2019-05-16T16:34:11.474Z,35.95
2019-05-16T16:36:44.138Z,39.42
2019-05-16T16:39:18.732Z,35.25
2019-05-16T16:41:56.740Z,34.88
2019-05-16T16:44:30.938Z,38.85
2019-05-16T16:47:02.605Z,34.95
2019-05-16T16:49:34.172Z,34.30
2019-05-16T16:52:08.605Z,39.18
2019-05-16T16:54:42.908Z,36.87
2019-05-16T16:57:14.717Z,39.60
2019-05-16T16:59:47.652Z,37.80
2019-05-16T17:02:20.309Z,36.53
2019-05-16T17:05:00.718Z,40.85
2019-05-16T17:07:30.797Z,36.40
2019-05-16T17:10:03.679Z,34.25
2019-05-16T17:12:41.290Z,35.05
2019-05-16T17:15:10.906Z,32.88
2019-05-16T17:17:43.550Z,35.75
2019-05-16T17:20:15.138Z,35.43
2019-05-16T17:22:47.776Z,35.45
2019-05-16T17:25:19.001Z,35.83
2019-05-16T17:27:50.667Z,31.17
2019-05-16T17:30:26.122Z,31.07
2019-05-16T17:32:58.882Z,32.63
2019-05-16T17:35:31.514Z,37.35
2019-05-16T17:38:10.063Z,34.95
2019-05-16T17:40:47.891Z,37.45
2019-05-16T17:43:22.664Z,35.05
2019-05-16T17:45:59.005Z,30.70
2019-05-16T17:48:33.801Z,32.38
2019-05-16T17:51:07.390Z,34.13
2019-05-16T17:53:40.047Z,34.88
2019-05-16T17:56:11.481Z,34.13
2019-05-16T17:58:45.472Z,33.63
2019-05-16T18:01:17.885Z,31.87
2019-05-16T18:03:54.337Z,35.58
2019-05-16T18:06:27.164Z,28.90
2019-05-16T18:08:58.814Z,31.75
2019-05-16T18:11:30.326Z,28.55
2019-05-16T18:14:02.077Z,33.15
2019-05-16T18:16:48.472Z,31.17
2019-05-16T18:19:07.408Z,29.30
2019-05-16T18:21:39.876Z,29.92
2019-05-16T18:24:12.279Z,29.57
2019-05-16T18:26:46.348Z,32.53
2019-05-16T18:29:18.786Z,29.95
2019-05-16T18:31:51.495Z,31.17
2019-05-16T18:34:23.064Z,29.10
2019-05-16T18:36:57.080Z,30.10
2019-05-16T18:39:28.338Z,32.45
2019-05-16T18:42:00.142Z,35.03
2019-05-16T18:44:31.810Z,32.88
2019-05-16T18:47:07.757Z,33.58
2019-05-16T18:49:36.801Z,33.65
2019-05-16T18:52:10.224Z,34.75
2019-05-16T18:54:41.845Z,32.58
2019-05-16T18:57:14.592Z,30.85
2019-05-16T18:59:46.329Z,31.45
2019-05-16T19:02:18.941Z,35.20
2019-05-16T19:04:51.529Z,33.00
2019-05-16T19:07:24.065Z,33.45
2019-05-16T19:09:58.152Z,34.63
2019-05-16T19:12:29.677Z,37.45
2019-05-16T19:15:02.064Z,35.73
2019-05-16T19:17:33.670Z,35.78
2019-05-16T19:20:06.834Z,35.00
2019-05-16T19:22:39.670Z,34.60
2019-05-16T19:25:11.345Z,37.58
2019-05-16T19:27:43.673Z,34.40
2019-05-16T19:30:16.213Z,33.50
2019-05-16T19:32:48.580Z,34.27
2019-05-16T19:35:21.240Z,34.50
2019-05-16T19:37:53.206Z,37.42
2019-05-16T19:40:26.458Z,33.00
2019-05-16T19:42:59.314Z,39.08
2019-05-16T19:45:31.069Z,36.40
2019-05-16T19:48:02.699Z,32.53
2019-05-16T19:50:34.318Z,35.88
2019-05-16T19:53:07.565Z,31.40
2019-05-16T19:55:39.106Z,37.95
2019-05-16T19:58:10.647Z,37.93
2019-05-16T20:00:43.498Z,39.13
2019-05-16T20:03:17.643Z,37.95
2019-05-16T20:05:49.974Z,38.53
2019-05-16T20:08:22.359Z,33.13
2019-05-16T20:10:53.941Z,35.30
2019-05-16T20:13:27.332Z,34.23
2019-05-16T20:15:59.002Z,36.38
2019-05-16T20:18:30.447Z,40.85
2019-05-16T20:21:01.933Z,35.98
2019-05-16T20:23:36.831Z,40.03
2019-05-16T20:26:10.753Z,37.23
2019-05-16T20:28:47.296Z,41.53
2019-05-16T20:31:18.734Z,41.53
2019-05-16T20:33:50.298Z,41.68
2019-05-16T20:36:21.950Z,44.20
2019-05-16T20:38:54.293Z,43.02
2019-05-16T20:41:27.334Z,42.40
2019-05-16T20:43:58.551Z,43.42
2019-05-16T20:46:31.262Z,47.23
2019-05-16T20:49:04.146Z,46.02
2019-05-16T20:51:37.578Z,45.08
2019-05-16T20:54:08.996Z,48.73
2019-05-16T20:56:41.631Z,45.85
2019-05-16T20:59:13.342Z,46.83
2019-05-16T21:01:46.432Z,47.08
2019-05-16T21:04:19.679Z,48.70
2019-05-16T21:07:00.468Z,50.67
2019-05-16T21:09:26.289Z,51.10
2019-05-16T21:11:58.836Z,49.80
2019-05-16T21:14:31.336Z,50.73
2019-05-16T21:17:03.757Z,51.35
2019-05-16T21:19:39.231Z,50.63
2019-05-16T21:22:10.617Z,49.50
2019-05-16T21:24:42.337Z,52.15
2019-05-16T21:27:13.965Z,51.42
2019-05-16T21:29:47.163Z,51.65
2019-05-16T21:32:18.677Z,50.78
2019-05-16T21:34:51.164Z,51.92
2019-05-16T21:37:22.813Z,49.00
2019-05-16T21:39:54.153Z,50.08
2019-05-16T21:42:27.733Z,48.85
2019-05-16T21:45:00.406Z,52.88
2019-05-16T21:47:36.757Z,49.77
2019-05-16T21:50:27.456Z,52.73
2019-05-16T21:52:58.523Z,51.05
2019-05-16T21:55:30.108Z,54.03
2019-05-16T21:58:02.614Z,51.90
2019-05-16T22:00:39.413Z,46.35
2019-05-16T22:03:11.898Z,49.38
2019-05-16T22:05:46.328Z,51.63
2019-05-16T22:08:18.066Z,53.17
2019-05-16T22:10:50.746Z,52.62
2019-05-16T22:13:23.191Z,53.60
2019-05-16T22:15:57.424Z,50.45
2019-05-16T22:18:29.962Z,57.17
2019-05-16T22:21:02.534Z,50.88
2019-05-16T22:23:33.890Z,51.45
2019-05-16T22:26:07.697Z,49.15
2019-05-16T22:28:40.471Z,55.75
2019-05-16T22:31:12.983Z,53.55
2019-05-16T22:33:46.766Z,51.92
2019-05-16T22:36:19.537Z,56.90
2019-05-16T22:38:51.963Z,51.33
2019-05-16T22:41:23.684Z,50.28
2019-05-16T22:43:56.220Z,49.20
2019-05-16T22:46:30.663Z,53.65
2019-05-16T22:49:03.057Z,106.80
2019-05-16T22:51:36.619Z,234.30
2019-05-16T22:54:08.696Z,74.03
2019-05-16T22:56:41.623Z,56.40
2019-05-16T22:59:16.485Z,57.88
2019-05-16T23:01:47.059Z,55.50
2019-05-16T23:04:19.772Z,50.33
2019-05-16T23:06:52.473Z,56.50
2019-05-16T23:09:26.963Z,59.23
2019-05-16T23:11:57.624Z,68.00
2019-05-16T23:14:29.807Z,68.10
2019-05-16T23:17:06.649Z,68.10
2019-05-16T23:19:39.598Z,58.80
2019-05-16T23:22:14.143Z,66.02
2019-05-16T23:24:46.539Z,59.53
2019-05-16T23:27:21.286Z,70.37
2019-05-16T23:29:54.101Z,60.15
2019-05-16T23:32:27.051Z,58.02
2019-05-16T23:35:00.238Z,70.57
2019-05-16T23:37:32.743Z,56.70
2019-05-16T23:40:06.200Z,53.63
2019-05-16T23:42:38.026Z,51.73
2019-05-16T23:45:11.231Z,51.30
2019-05-16T23:47:43.992Z,59.13
2019-05-16T23:50:17.080Z,52.70
2019-05-16T23:52:48.369Z,55.48
2019-05-16T23:55:21.032Z,53.02
2019-05-16T23:57:52.586Z,51.00
